createdAt,value
2023-06-16T00:04:38.791Z,1013.7
2023-06-16T00:09:07.006Z,1013.7
2023-06-16T00:14:13.417Z,1013.7
2023-06-16T00:19:39.950Z,1013.7
2023-06-16T00:24:26.348Z,1013.7
2023-06-16T00:29:32.684Z,1013.7
2023-06-16T00:34:39.057Z,1013.7
2023-06-16T00:40:05.622Z,1013.7
2023-06-16T00:44:52.034Z,1013.7
2023-06-16T00:50:02.441Z,1013.6
2023-06-16T00:55:04.813Z,1013.6
2023-06-16T01:00:01.200Z,1013.6
2023-06-16T01:06:22.649Z,1013.5
2023-06-16T01:10:22.955Z,1013.5
2023-06-16T01:15:20.501Z,1013.5
2023-06-16T01:20:40.866Z,1013.6
2023-06-16T01:25:43.450Z,1013.5
2023-06-16T01:30:49.844Z,1013.6
2023-06-16T01:36:20.253Z,1013.5
2023-06-16T01:41:02.577Z,1013.6
2023-06-16T01:46:33.115Z,1013.6
2023-06-16T01:51:15.334Z,1013.6
2023-06-16T01:56:41.892Z,1013.6
2023-06-16T02:01:28.251Z,1013.6
2023-06-16T02:06:34.755Z,1013.6
2023-06-16T02:11:31.232Z,1013.5
2023-06-16T02:16:46.637Z,1013.5
2023-06-16T02:21:54.133Z,1013.5
2023-06-16T02:27:00.478Z,1013.5
2023-06-16T02:32:06.859Z,1013.5
2023-06-16T02:37:13.266Z,1013.5
2023-06-16T02:42:19.766Z,1013.5
2023-06-16T02:47:26.179Z,1013.6
2023-06-16T02:52:32.556Z,1013.5
2023-06-16T02:58:35.023Z,1013.5
2023-06-16T03:03:29.431Z,1013.5
2023-06-16T03:07:51.686Z,1013.5
2023-06-16T03:12:58.041Z,1013.5
2023-06-16T03:18:04.475Z,1013.5
2023-06-16T03:23:10.827Z,1013.5
2023-06-16T03:28:17.202Z,1013.5
2023-06-16T03:33:23.674Z,1013.5
2023-06-16T03:38:34.132Z,1013.4
2023-06-16T03:43:36.469Z,1013.5
2023-06-16T03:54:53.403Z,1013.5
2023-06-16T03:59:59.802Z,1013.6
2023-06-16T04:05:11.139Z,1013.6
2023-06-16T04:10:17.927Z,1013.6
2023-06-16T04:15:20.117Z,1013.6
2023-06-16T04:20:30.573Z,1013.5
2023-06-16T04:25:32.372Z,1013.6
2023-06-16T04:30:39.744Z,1013.6
2023-06-16T04:36:56.284Z,1013.5
2023-06-16T04:45:18.573Z,1013.4
2023-06-16T04:50:27.496Z,1013.4
2023-06-16T04:56:44.012Z,1013.3
2023-06-16T05:00:40.273Z,1013.4
2023-06-16T05:05:46.653Z,1013.4
2023-06-16T05:10:53.013Z,1013.4
2023-06-16T05:16:19.504Z,1013.4
2023-06-16T05:21:25.834Z,1013.4
2023-06-16T05:26:36.203Z,1013.4
2023-06-16T05:31:57.665Z,1013.4
2023-06-16T05:36:23.939Z,1013.3
2023-06-16T05:41:21.453Z,1013.3
2023-06-16T05:46:27.826Z,1013.3
2023-06-16T05:51:44.333Z,1013.4
2023-06-16T05:56:50.675Z,1013.4
2023-06-16T06:01:57.066Z,1013.4
2023-06-16T06:07:05.103Z,1013.5
2023-06-16T06:12:01.398Z,1013.5
2023-06-16T06:17:17.820Z,1013.4
2023-06-16T06:22:24.261Z,1013.6
2023-06-16T06:27:29.608Z,1013.6
2023-06-16T06:32:37.035Z,1013.6
2023-06-16T06:37:33.373Z,1013.6
2023-06-16T06:42:49.867Z,1013.6
2023-06-16T06:47:56.389Z,1013.7
2023-06-16T06:53:02.895Z,1013.7
2023-06-16T06:58:09.248Z,1013.7
2023-06-16T07:03:05.699Z,1013.7
2023-06-16T07:08:22.015Z,1013.6
2023-06-16T07:13:28.356Z,1013.7
2023-06-16T07:18:34.748Z,1013.7
2023-06-16T07:23:41.180Z,1013.8
2023-06-16T07:28:47.503Z,1013.7
2023-06-16T07:33:43.868Z,1013.7
2023-06-16T07:39:00.281Z,1013.7
2023-06-16T07:44:06.643Z,1013.8
2023-06-16T07:49:03.041Z,1013.8
2023-06-16T07:54:19.610Z,1013.7
2023-06-16T07:59:26.019Z,1013.7
2023-06-16T08:04:22.790Z,1013.6
2023-06-16T08:09:28.935Z,1013.5
2023-06-16T08:14:45.289Z,1013.7
2023-06-16T08:19:41.644Z,1013.5
2023-06-16T08:24:58.077Z,1013.5
2023-06-16T08:30:04.406Z,1013.6
2023-06-16T08:35:00.789Z,1013.5
2023-06-16T08:40:17.718Z,1013.4
2023-06-16T08:45:23.772Z,1013.3
2023-06-16T08:50:29.297Z,1013.3
2023-06-16T08:55:37.012Z,1013.2
2023-06-16T09:00:43.177Z,1013.3
2023-06-16T09:05:49.551Z,1013.2
2023-06-16T09:10:55.953Z,1013.1
2023-06-16T09:16:02.422Z,1013.2
2023-06-16T09:21:08.771Z,1013.1
2023-06-16T09:26:15.322Z,1013.3
2023-06-16T09:31:41.786Z,1013.2
2023-06-16T09:36:28.121Z,1013.1
2023-06-16T09:41:34.675Z,1013.0
2023-06-16T09:46:40.905Z,1013.1
2023-06-16T09:51:37.258Z,1013.0
2023-06-16T09:56:43.692Z,1012.9
2023-06-16T10:02:00.110Z,1013.0
2023-06-16T10:06:56.448Z,1012.8
2023-06-16T10:12:37.182Z,1012.8
2023-06-16T10:17:39.546Z,1012.7
2023-06-16T10:22:25.828Z,1012.7
2023-06-16T10:27:22.220Z,1012.7
2023-06-16T10:33:06.338Z,1012.6
2023-06-16T10:37:48.686Z,1012.6
2023-06-16T10:42:55.036Z,1012.5
2023-06-16T10:48:21.649Z,1012.6
2023-06-16T10:53:31.032Z,1012.5
2023-06-16T10:58:14.472Z,1012.4
2023-06-16T11:03:20.916Z,1012.4
2023-06-16T11:08:27.241Z,1012.3
2023-06-16T11:13:53.669Z,1012.3
2023-06-16T11:19:00.144Z,1012.3
2023-06-16T11:24:29.636Z,1012.2
2023-06-16T11:29:12.850Z,1012.3
2023-06-16T11:34:38.479Z,1012.2
2023-06-16T11:44:19.862Z,1012.4
2023-06-16T11:49:28.799Z,1012.3
2023-06-16T11:54:32.655Z,1012.3
2023-06-16T11:59:40.097Z,1012.2
2023-06-16T12:04:45.556Z,1012.2
2023-06-16T12:09:52.866Z,1012.1
2023-06-16T12:14:59.304Z,1012.1
2023-06-16T12:20:25.747Z,1011.8
2023-06-16T12:25:32.177Z,1012.0
2023-06-16T12:30:19.603Z,1012.0
2023-06-16T12:35:25.184Z,1011.8
2023-06-16T12:40:45.587Z,1011.9
2023-06-16T12:45:37.961Z,1011.7
2023-06-16T12:50:44.341Z,1011.8
2023-06-16T12:55:50.707Z,1012.0
2023-06-16T13:00:57.123Z,1012.0
2023-06-16T13:06:03.670Z,1011.7
2023-06-16T13:11:00.152Z,1011.9
2023-06-16T13:16:16.585Z,1012.0
2023-06-16T13:21:43.024Z,1011.9
2023-06-16T13:26:29.381Z,1011.7
2023-06-16T13:31:35.826Z,1011.4
2023-06-16T13:36:42.154Z,1011.5
2023-06-16T13:41:48.795Z,1011.6
2023-06-16T13:46:55.177Z,1011.4
2023-06-16T13:52:01.606Z,1011.3
2023-06-16T13:57:08.107Z,1011.2
2023-06-16T14:02:04.543Z,1011.2
2023-06-16T14:07:20.868Z,1011.1
2023-06-16T14:12:27.256Z,1011.2
2023-06-16T14:17:33.710Z,1011.1
2023-06-16T14:22:40.018Z,1011.1
2023-06-16T14:27:46.401Z,1011.1
2023-06-16T14:32:52.888Z,1011.1
2023-06-16T14:37:59.143Z,1011.0
2023-06-16T14:43:05.555Z,1011.0
2023-06-16T14:48:12.124Z,1011.0
2023-06-16T14:53:32.449Z,1010.9
2023-06-16T14:58:24.904Z,1011.0
2023-06-16T15:03:31.439Z,1010.9
2023-06-16T15:08:27.689Z,1011.0
2023-06-16T15:13:44.136Z,1011.0
2023-06-16T15:18:50.515Z,1010.9
2023-06-16T15:23:56.010Z,1010.9
2023-06-16T15:29:03.289Z,1010.9
2023-06-16T15:33:59.789Z,1010.9
2023-06-16T15:39:16.260Z,1010.8
2023-06-16T15:44:12.624Z,1010.9
2023-06-16T15:49:29.035Z,1010.8
2023-06-16T15:54:35.394Z,1010.9
2023-06-16T15:59:41.814Z,1010.9
2023-06-16T16:04:51.795Z,1010.8
2023-06-16T16:09:57.133Z,1010.7
2023-06-16T16:15:05.778Z,1010.7
2023-06-16T16:20:11.162Z,1010.7
2023-06-16T16:25:17.535Z,1010.7
2023-06-16T16:30:28.095Z,1010.7
2023-06-16T16:35:30.410Z,1010.7
2023-06-16T16:40:36.748Z,1010.6
2023-06-16T16:45:43.147Z,1010.6
2023-06-16T16:50:49.638Z,1010.6
2023-06-16T16:56:16.053Z,1010.7
2023-06-16T17:01:02.484Z,1010.7
2023-06-16T17:07:06.433Z,1010.6
2023-06-16T17:11:19.330Z,1010.7
2023-06-16T17:16:21.674Z,1010.7
2023-06-16T17:21:52.050Z,1010.8
2023-06-16T17:26:24.418Z,1010.8
2023-06-16T17:32:57.414Z,1010.8
2023-06-16T17:38:02.317Z,1010.9
2023-06-16T17:43:52.948Z,1010.9
2023-06-16T17:48:15.206Z,1010.9
2023-06-16T17:53:21.582Z,1010.9
2023-06-16T17:58:27.976Z,1010.9
2023-06-16T18:03:48.401Z,1010.9
2023-06-16T18:08:40.726Z,1010.8
2023-06-16T18:13:47.118Z,1011.0
2023-06-16T18:18:43.474Z,1011.0
2023-06-16T18:23:59.960Z,1011.0
2023-06-16T18:29:06.308Z,1010.9
2023-06-16T18:34:12.674Z,1011.0
2023-06-16T18:40:03.194Z,1011.0
2023-06-16T18:44:25.480Z,1011.0
2023-06-16T18:49:21.926Z,1011.0
2023-06-16T18:54:38.407Z,1011.1
2023-06-16T18:59:48.846Z,1011.0
2023-06-16T19:04:51.177Z,1011.1
2023-06-16T19:09:47.545Z,1011.1
2023-06-16T19:15:28.051Z,1011.1
2023-06-16T19:20:00.400Z,1011.1
2023-06-16T19:25:16.801Z,1011.1
2023-06-16T19:30:23.211Z,1011.2
2023-06-16T19:35:29.831Z,1011.2
2023-06-16T19:40:36.354Z,1011.3
2023-06-16T19:45:42.917Z,1011.3
2023-06-16T19:51:13.388Z,1011.4
2023-06-16T19:55:54.690Z,1011.5
2023-06-16T20:01:22.697Z,1011.5
2023-06-16T20:07:23.789Z,1011.5
2023-06-16T20:13:07.275Z,1011.5
2023-06-16T20:17:43.989Z,1011.5
2023-06-16T20:24:05.333Z,1011.6
2023-06-16T20:29:09.600Z,1011.5
2023-06-16T20:34:57.971Z,1011.6
2023-06-16T20:41:04.187Z,1011.5
2023-06-16T20:44:40.978Z,1011.5
2023-06-16T20:55:20.762Z,1011.4
2023-06-16T21:00:05.029Z,1011.3
2023-06-16T21:05:10.489Z,1011.4
2023-06-16T21:10:18.207Z,1011.5
2023-06-16T21:15:24.226Z,1011.5
2023-06-16T21:20:29.716Z,1011.4
2023-06-16T21:25:37.173Z,1011.4
2023-06-16T21:31:07.747Z,1011.4
2023-06-16T21:36:31.268Z,1011.4
2023-06-16T21:40:56.158Z,1011.3
2023-06-16T21:46:27.637Z,1011.4
2023-06-16T21:51:34.016Z,1011.4
2023-06-16T21:56:16.404Z,1011.4
2023-06-16T22:01:22.767Z,1011.5
2023-06-16T22:06:29.177Z,1011.5
2023-06-16T22:11:35.561Z,1011.4
2023-06-16T22:16:41.963Z,1011.4
2023-06-16T22:21:48.462Z,1011.3
2023-06-16T22:27:11.545Z,1011.4
2023-06-16T22:32:01.215Z,1011.3
2023-06-16T22:37:07.660Z,1011.3
2023-06-16T22:42:14.025Z,1011.3
2023-06-16T22:47:40.478Z,1011.3
2023-06-16T22:52:26.952Z,1011.3
2023-06-16T22:58:36.561Z,1011.3
2023-06-16T23:02:39.041Z,1011.2
2023-06-16T23:07:46.193Z,1011.2
2023-06-16T23:12:52.681Z,1011.2
2023-06-16T23:18:38.108Z,1011.2
2023-06-16T23:23:04.529Z,1011.2
2023-06-16T23:28:11.890Z,1011.2
2023-06-16T23:33:38.324Z,1011.1
2023-06-16T23:38:24.694Z,1011.1
2023-06-16T23:43:51.102Z,1011.1
2023-06-16T23:48:37.418Z,1011.1
2023-06-16T23:53:43.911Z,1011.1
2023-06-16T23:58:50.328Z,1011.1
